Adams, Oregon
Current Conditions -  °F | °C
As of 8:53 PM on Friday 19 Dec 2014 (Local Time) from KPDT Reporting Station
Clear Clear  
Wind Chill: 30°   Ceiling: Unl
Heat Index: 36°   Visibility: 10mi
Dew Point: 34°   Wind: 8mph
Humidity: 93%   Direction: 130°SE
Pressure: 30.01"   Gusts: NA
Location:  45.77°N, 118.56°W
Report Text: KPDT 200453Z AUTO 13007KT 10SM CLR 02/01 A3001 RMK AO2 SLP166 T00220011
Loading
Personal Weather Stations






























Interactive Weather Map New forecast layout! Learn more

10-Day Weather Forecast

Advertisements
Track Severe Weather on mobile